createdAt,value
2018-05-09T00:01:22.964Z,99.90
2018-05-09T00:03:52.866Z,99.90
2018-05-09T00:06:21.411Z,99.90
2018-05-09T00:08:49.778Z,99.90
2018-05-09T00:11:18.204Z,99.90
2018-05-09T00:13:46.763Z,99.90
2018-05-09T00:16:15.960Z,99.90
2018-05-09T00:18:45.144Z,99.90
2018-05-09T00:21:13.664Z,99.90
2018-05-09T00:23:42.083Z,99.90
2018-05-09T00:26:10.477Z,99.90
2018-05-09T00:28:39.779Z,99.90
2018-05-09T00:31:08.235Z,99.90
2018-05-09T00:33:36.649Z,99.90
2018-05-09T00:36:05.075Z,99.90
2018-05-09T00:38:33.465Z,99.90
2018-05-09T00:41:01.906Z,99.90
2018-05-09T00:43:30.439Z,99.90
2018-05-09T00:45:58.884Z,99.90
2018-05-09T00:48:27.290Z,99.90
2018-05-09T00:50:55.862Z,99.90
2018-05-09T00:53:25.012Z,99.90
2018-05-09T00:55:54.343Z,99.90
2018-05-09T00:58:22.766Z,99.90
2018-05-09T01:00:51.886Z,99.90
2018-05-09T01:03:20.272Z,99.90
2018-05-09T01:05:49.619Z,99.90
2018-05-09T01:08:18.086Z,99.90
2018-05-09T01:10:46.477Z,99.90
2018-05-09T01:13:14.864Z,99.90
2018-05-09T01:15:43.247Z,99.90
2018-05-09T01:18:11.723Z,99.90
2018-05-09T01:20:40.288Z,99.90
2018-05-09T01:23:08.684Z,99.90
2018-05-09T01:25:37.238Z,99.90
2018-05-09T01:28:05.648Z,99.90
2018-05-09T01:30:34.955Z,99.90
2018-05-09T01:33:03.928Z,99.90
2018-05-09T01:35:32.332Z,99.90
2018-05-09T01:38:01.239Z,99.90
2018-05-09T01:40:29.812Z,99.90
2018-05-09T01:42:58.204Z,99.90
2018-05-09T01:45:26.579Z,99.90
2018-05-09T01:47:54.945Z,99.90
2018-05-09T01:50:23.368Z,99.90
2018-05-09T01:52:51.810Z,99.90
2018-05-09T01:55:20.332Z,99.90
2018-05-09T01:57:48.884Z,99.90
2018-05-09T02:00:17.479Z,99.90
2018-05-09T02:02:46.628Z,99.90
2018-05-09T02:05:14.998Z,99.90
2018-05-09T02:07:43.512Z,99.90
2018-05-09T02:10:12.035Z,99.90
2018-05-09T02:12:40.461Z,99.90
2018-05-09T02:15:08.830Z,99.90
2018-05-09T02:17:38.106Z,99.90
2018-05-09T02:20:06.525Z,99.90
2018-05-09T02:22:34.895Z,99.90
2018-05-09T02:25:04.215Z,99.90
2018-05-09T02:27:32.771Z,99.90
2018-05-09T02:30:01.907Z,99.90
2018-05-09T02:32:31.228Z,99.90
2018-05-09T02:34:59.611Z,99.90
2018-05-09T02:37:28.079Z,99.90
2018-05-09T02:39:57.379Z,99.90
2018-05-09T02:42:25.779Z,99.90
2018-05-09T02:44:54.166Z,99.90
2018-05-09T02:47:22.559Z,99.90
2018-05-09T02:49:51.184Z,99.90
2018-05-09T02:52:20.439Z,99.90
2018-05-09T02:54:48.987Z,99.90
2018-05-09T02:57:17.413Z,99.90
2018-05-09T02:59:46.671Z,99.90
2018-05-09T03:02:15.904Z,99.90
2018-05-09T03:04:45.163Z,99.90
2018-05-09T03:07:13.567Z,99.90
2018-05-09T03:09:41.967Z,99.90
2018-05-09T03:12:11.307Z,99.90
2018-05-09T03:14:39.694Z,99.90
2018-05-09T03:17:08.089Z,99.90
2018-05-09T03:19:36.647Z,99.90
2018-05-09T03:22:05.192Z,99.90
2018-05-09T03:24:33.587Z,99.90
2018-05-09T03:27:02.008Z,99.90
2018-05-09T03:29:30.546Z,99.90
2018-05-09T03:31:59.080Z,99.90
2018-05-09T03:34:28.408Z,99.90
2018-05-09T03:36:56.777Z,99.90
2018-05-09T03:39:25.239Z,99.90
2018-05-09T03:41:54.561Z,99.90
2018-05-09T03:44:22.930Z,99.90
2018-05-09T03:46:52.819Z,99.90
2018-05-09T03:49:21.200Z,99.90
2018-05-09T03:51:49.731Z,99.90
2018-05-09T03:54:18.123Z,99.90
2018-05-09T03:56:46.499Z,99.90
2018-05-09T03:59:14.863Z,99.90
2018-05-09T04:01:55.121Z,99.90
2018-05-09T04:04:35.443Z,99.90
2018-05-09T04:07:15.686Z,99.90
2018-05-09T04:09:51.663Z,99.90
2018-05-09T04:12:20.787Z,99.90
2018-05-09T04:14:49.161Z,99.90
2018-05-09T04:17:17.563Z,99.90
2018-05-09T04:19:45.978Z,99.90
2018-05-09T04:22:14.403Z,99.90
2018-05-09T04:24:42.819Z,99.90
2018-05-09T04:27:11.190Z,99.90
2018-05-09T04:29:39.577Z,99.90
2018-05-09T04:32:07.951Z,99.90
2018-05-09T04:34:36.319Z,99.90
2018-05-09T04:37:04.719Z,99.90
2018-05-09T04:39:33.121Z,99.90
2018-05-09T04:42:02.454Z,99.90
2018-05-09T04:44:30.859Z,99.90
2018-05-09T04:46:59.272Z,99.90
2018-05-09T04:49:27.712Z,99.90
2018-05-09T04:51:56.077Z,99.90
2018-05-09T04:54:24.457Z,99.90
2018-05-09T04:56:52.811Z,99.90
2018-05-09T04:59:21.226Z,99.90
2018-05-09T05:01:49.685Z,99.90
2018-05-09T05:04:18.987Z,99.90
2018-05-09T05:06:47.384Z,99.90
2018-05-09T05:09:15.792Z,99.90
2018-05-09T05:11:44.223Z,99.90
2018-05-09T05:14:12.727Z,99.90
2018-05-09T05:16:41.113Z,99.90
2018-05-09T05:19:09.499Z,99.90
2018-05-09T05:21:38.085Z,99.90
2018-05-09T05:24:06.452Z,99.90
2018-05-09T05:26:35.136Z,99.90
2018-05-09T05:29:04.270Z,99.90
2018-05-09T05:31:33.575Z,99.90
2018-05-09T05:34:02.899Z,99.90
2018-05-09T05:36:31.342Z,99.90
2018-05-09T05:41:36.031Z,99.90
2018-05-09T05:44:04.404Z,99.90
2018-05-09T05:46:32.779Z,99.90
2018-05-09T05:49:01.169Z,99.90
2018-05-09T05:51:29.741Z,99.90
2018-05-09T05:56:41.821Z,99.90
2018-05-09T05:59:10.187Z,99.90
2018-05-09T06:01:38.627Z,99.90
2018-05-09T06:04:07.181Z,99.90
2018-05-09T06:06:35.687Z,99.90
2018-05-09T06:09:04.093Z,99.90
2018-05-09T06:11:32.453Z,99.90
2018-05-09T06:14:00.795Z,99.90
2018-05-09T06:16:29.936Z,99.90
2018-05-09T06:18:59.092Z,99.90
2018-05-09T06:21:27.635Z,99.90
2018-05-09T06:23:56.148Z,99.90
2018-05-09T06:26:24.675Z,99.90
2018-05-09T06:28:53.040Z,99.90
2018-05-09T06:31:21.608Z,99.90
2018-05-09T06:33:50.796Z,99.90
2018-05-09T06:36:19.218Z,99.90
2018-05-09T06:38:47.631Z,99.90
2018-05-09T06:41:16.099Z,99.90
2018-05-09T06:43:44.633Z,97.70
2018-05-09T06:46:13.131Z,97.30
2018-05-09T06:48:41.647Z,92.80
2018-05-09T06:51:10.030Z,91.80
2018-05-09T06:53:38.395Z,90.20
2018-05-09T06:56:06.968Z,84.90
2018-05-09T06:58:35.345Z,83.70
2018-05-09T07:01:03.913Z,88.80
2018-05-09T07:03:33.076Z,89.00
2018-05-09T07:06:01.623Z,89.00
2018-05-09T07:08:30.020Z,92.70
2018-05-09T07:10:58.475Z,92.30
2018-05-09T07:13:26.889Z,94.80
2018-05-09T07:15:56.084Z,91.90
2018-05-09T07:18:24.459Z,92.00
2018-05-09T07:20:52.859Z,91.90
2018-05-09T07:23:21.250Z,93.60
2018-05-09T07:25:49.747Z,93.00
2018-05-09T07:28:18.108Z,92.90
2018-05-09T07:30:46.511Z,96.00
2018-05-09T07:33:14.892Z,90.80
2018-05-09T07:35:43.263Z,77.50
2018-05-09T07:38:11.644Z,70.00
2018-05-09T07:40:40.010Z,75.00
2018-05-09T07:43:08.411Z,66.60
2018-05-09T07:45:36.819Z,64.20
2018-05-09T07:48:05.196Z,80.70
2018-05-09T07:50:33.557Z,83.20
2018-05-09T07:53:01.955Z,76.90
2018-05-09T07:55:30.334Z,69.40
2018-05-09T07:57:58.705Z,76.40
2018-05-09T08:00:27.933Z,63.40
2018-05-09T08:02:56.344Z,63.60
2018-05-09T08:05:24.843Z,59.50
2018-05-09T08:07:53.987Z,68.90
2018-05-09T08:10:22.366Z,68.90
2018-05-09T08:12:50.863Z,68.80
2018-05-09T08:15:19.320Z,81.00
2018-05-09T08:17:47.692Z,60.30
2018-05-09T08:20:16.107Z,68.90
2018-05-09T08:22:44.483Z,68.80
2018-05-09T08:25:13.025Z,78.00
2018-05-09T08:27:41.433Z,86.60
2018-05-09T08:30:10.581Z,77.90
2018-05-09T08:32:38.963Z,77.70
2018-05-09T08:35:08.297Z,63.90
2018-05-09T08:37:37.454Z,65.80
2018-05-09T08:40:05.914Z,65.00
2018-05-09T08:42:34.331Z,64.40
2018-05-09T08:45:03.681Z,57.50
2018-05-09T08:47:32.038Z,57.90
2018-05-09T08:50:00.427Z,57.80
2018-05-09T08:52:28.845Z,55.20
2018-05-09T08:54:57.347Z,58.80
2018-05-09T08:57:25.742Z,55.90
2018-05-09T08:59:54.143Z,52.70
2018-05-09T09:02:22.524Z,53.70
2018-05-09T09:04:50.916Z,58.20
2018-05-09T09:07:19.292Z,64.80
2018-05-09T09:09:47.884Z,60.70
2018-05-09T09:12:16.338Z,63.70
2018-05-09T09:14:45.476Z,72.50
2018-05-09T09:17:13.873Z,72.40
2018-05-09T09:19:42.291Z,71.50
2018-05-09T09:22:10.843Z,72.30
2018-05-09T09:24:39.215Z,83.30
2018-05-09T09:27:07.675Z,80.70
2018-05-09T09:29:36.071Z,79.30
2018-05-09T09:32:05.377Z,85.90
2018-05-09T09:34:33.735Z,86.30
2018-05-09T09:37:02.918Z,88.50
2018-05-09T09:39:32.222Z,77.30
2018-05-09T09:42:01.532Z,85.30
2018-05-09T09:44:29.929Z,84.70
2018-05-09T09:46:59.065Z,82.20
2018-05-09T09:49:27.428Z,82.70
2018-05-09T09:51:55.969Z,82.60
2018-05-09T09:54:25.161Z,85.70
2018-05-09T09:56:53.643Z,85.80
2018-05-09T09:59:22.007Z,74.40
2018-05-09T10:01:50.563Z,74.40
2018-05-09T10:04:18.963Z,76.90
2018-05-09T10:06:47.374Z,86.30
2018-05-09T10:09:15.762Z,80.00
2018-05-09T10:11:44.312Z,84.70
2018-05-09T10:14:12.719Z,86.90
2018-05-09T10:16:41.113Z,73.40
2018-05-09T10:19:09.475Z,82.20
2018-05-09T10:21:37.909Z,82.10
2018-05-09T10:24:06.283Z,86.40
2018-05-09T10:26:34.834Z,82.90
2018-05-09T10:29:03.222Z,82.80
2018-05-09T10:31:31.683Z,80.50
2018-05-09T10:34:00.049Z,74.50
2018-05-09T10:36:29.241Z,82.20
2018-05-09T10:38:57.641Z,82.20
2018-05-09T10:41:26.064Z,72.90
2018-05-09T10:43:54.464Z,67.80
2018-05-09T10:46:23.003Z,70.20
2018-05-09T10:48:51.401Z,78.40
2018-05-09T10:51:19.861Z,72.70
2018-05-09T10:53:49.031Z,73.30
2018-05-09T10:56:17.420Z,72.40
2018-05-09T10:58:45.803Z,77.10
2018-05-09T11:01:14.211Z,60.20
2018-05-09T11:03:42.595Z,62.40
2018-05-09T11:06:11.175Z,70.10
2018-05-09T11:08:40.327Z,57.10
2018-05-09T11:11:09.685Z,66.00
2018-05-09T11:13:38.135Z,66.10
2018-05-09T11:16:07.271Z,52.50
2018-05-09T11:18:35.689Z,52.50
2018-05-09T11:21:04.127Z,51.70
2018-05-09T11:23:32.503Z,57.80
2018-05-09T11:26:01.057Z,54.80
2018-05-09T11:28:29.405Z,58.00
2018-05-09T11:30:57.778Z,56.90
2018-05-09T11:33:26.932Z,58.20
2018-05-09T11:35:56.267Z,59.30
2018-05-09T11:38:24.654Z,58.60
2018-05-09T11:40:53.035Z,64.40
2018-05-09T11:43:22.194Z,56.00
2018-05-09T11:45:50.588Z,55.60
2018-05-09T11:48:18.989Z,52.40
2018-05-09T11:50:47.461Z,49.00
2018-05-09T11:53:16.256Z,48.20
2018-05-09T11:55:45.880Z,55.80
2018-05-09T11:58:14.323Z,55.70
2018-05-09T12:00:42.758Z,47.50
2018-05-09T12:03:11.135Z,49.60
2018-05-09T12:05:39.750Z,56.10
2018-05-09T12:08:08.924Z,53.70
2018-05-09T12:10:37.320Z,53.70
2018-05-09T12:13:05.716Z,51.60
2018-05-09T12:15:34.219Z,52.90
2018-05-09T12:18:03.375Z,53.00
2018-05-09T12:20:31.822Z,52.80
2018-05-09T12:23:00.952Z,50.80
2018-05-09T12:25:30.283Z,53.20
2018-05-09T12:27:58.685Z,53.00
2018-05-09T12:30:27.047Z,55.50
2018-05-09T12:32:56.371Z,59.70
2018-05-09T12:35:24.898Z,57.20
2018-05-09T12:37:53.296Z,49.70
2018-05-09T12:40:21.712Z,44.30
2018-05-09T12:42:50.962Z,50.40
2018-05-09T12:45:19.503Z,50.30
2018-05-09T12:47:47.915Z,49.90
2018-05-09T12:50:17.058Z,45.50
2018-05-09T12:52:45.488Z,45.50
2018-05-09T12:55:15.560Z,52.20
2018-05-09T12:57:43.968Z,52.10
2018-05-09T13:00:12.439Z,49.80
2018-05-09T13:02:40.843Z,50.90
2018-05-09T13:05:09.235Z,57.20
2018-05-09T13:07:37.615Z,54.70
2018-05-09T13:10:06.035Z,54.00
2018-05-09T13:12:35.195Z,57.20
2018-05-09T13:15:03.621Z,57.10
2018-05-09T13:17:32.819Z,44.30
2018-05-09T13:20:01.243Z,44.90
2018-05-09T13:22:29.660Z,45.50
2018-05-09T13:24:58.099Z,46.00
2018-05-09T13:27:26.535Z,44.60
2018-05-09T13:29:55.702Z,46.70
2018-05-09T13:32:24.239Z,46.40
2018-05-09T13:34:53.543Z,46.30
2018-05-09T13:37:22.097Z,47.20
2018-05-09T13:39:50.604Z,46.30
2018-05-09T13:42:19.158Z,52.40
2018-05-09T13:44:48.355Z,52.30
2018-05-09T13:47:16.764Z,52.30
2018-05-09T13:49:45.147Z,46.40
2018-05-09T13:52:13.711Z,49.00
2018-05-09T13:54:42.298Z,48.20
2018-05-09T13:57:10.683Z,41.60
2018-05-09T13:59:39.110Z,42.00
2018-05-09T14:02:07.514Z,41.80
2018-05-09T14:04:35.947Z,47.40
2018-05-09T14:07:04.376Z,47.90
2018-05-09T14:09:34.148Z,47.60
2018-05-09T14:12:03.470Z,50.50
2018-05-09T14:14:32.388Z,50.30
2018-05-09T14:17:00.823Z,45.60
2018-05-09T14:19:29.215Z,48.70
2018-05-09T14:21:58.571Z,47.30
2018-05-09T14:24:26.984Z,47.40
2018-05-09T14:26:56.256Z,46.90
2018-05-09T14:29:24.821Z,47.50
2018-05-09T14:31:53.224Z,49.40
2018-05-09T14:34:21.825Z,49.10
2018-05-09T14:36:51.380Z,47.50
2018-05-09T14:39:20.556Z,47.50
2018-05-09T14:41:48.965Z,46.80
2018-05-09T14:44:17.394Z,49.30
2018-05-09T14:46:45.854Z,47.00
2018-05-09T14:49:14.263Z,53.80
2018-05-09T14:51:42.650Z,51.00
2018-05-09T14:54:11.974Z,47.70
2018-05-09T14:56:40.500Z,47.70
2018-05-09T14:59:09.201Z,42.20
2018-05-09T15:01:37.588Z,44.80
2018-05-09T15:04:06.111Z,45.10
2018-05-09T15:06:35.251Z,44.90
2018-05-09T15:09:26.811Z,44.60
2018-05-09T15:11:55.373Z,43.50
2018-05-09T15:14:24.606Z,44.10
2018-05-09T15:16:53.101Z,44.10
2018-05-09T15:19:22.276Z,45.70
2018-05-09T15:21:50.680Z,46.20
2018-05-09T15:24:19.227Z,48.00
2018-05-09T15:26:54.948Z,47.60
2018-05-09T15:29:23.371Z,46.80
2018-05-09T15:31:51.853Z,50.20
2018-05-09T15:34:20.392Z,43.50
2018-05-09T15:36:48.780Z,44.90
2018-05-09T15:39:17.162Z,50.00
2018-05-09T15:41:46.499Z,47.20
2018-05-09T15:44:14.879Z,46.60
2018-05-09T15:46:43.374Z,51.30
2018-05-09T15:49:11.797Z,53.70
2018-05-09T15:51:40.171Z,55.60
2018-05-09T15:54:08.558Z,48.80
2018-05-09T15:56:40.731Z,48.60
2018-05-09T15:59:09.256Z,46.80
2018-05-09T16:01:37.817Z,51.00
2018-05-09T16:04:06.279Z,52.50
2018-05-09T16:06:34.707Z,58.10
2018-05-09T16:09:03.117Z,53.00
2018-05-09T16:11:32.351Z,56.20
2018-05-09T16:14:00.783Z,55.90
2018-05-09T16:16:29.193Z,57.60
2018-05-09T16:19:01.047Z,58.00
2018-05-09T16:21:29.616Z,52.10
2018-05-09T16:23:58.012Z,57.80
2018-05-09T16:26:26.464Z,59.60
2018-05-09T16:28:54.849Z,51.10
2018-05-09T16:31:23.302Z,48.40
2018-05-09T16:33:51.742Z,49.20
2018-05-09T16:36:20.403Z,49.20
2018-05-09T16:38:48.826Z,46.50
2018-05-09T16:41:20.475Z,47.60
2018-05-09T16:43:54.533Z,47.50
2018-05-09T16:46:22.912Z,48.60
2018-05-09T16:48:51.351Z,51.40
2018-05-09T16:51:20.538Z,50.00
2018-05-09T16:53:49.262Z,49.60
2018-05-09T16:56:17.739Z,50.20
2018-05-09T16:58:46.145Z,46.80
2018-05-09T17:01:14.538Z,46.40
2018-05-09T17:03:42.955Z,48.30
2018-05-09T17:06:12.215Z,45.60
2018-05-09T17:08:40.643Z,45.50
2018-05-09T17:11:09.263Z,45.80
2018-05-09T17:13:37.676Z,47.50
2018-05-09T17:16:06.101Z,45.30
2018-05-09T17:18:34.497Z,43.40
2018-05-09T17:21:02.896Z,45.00
2018-05-09T17:23:37.427Z,44.00
2018-05-09T17:26:06.569Z,44.50
2018-05-09T17:28:34.955Z,44.20
2018-05-09T17:31:03.389Z,43.80
2018-05-09T17:33:32.544Z,38.50
2018-05-09T17:36:01.242Z,38.40
2018-05-09T17:38:30.455Z,41.50
2018-05-09T17:40:58.839Z,41.50
2018-05-09T17:43:28.022Z,42.60
2018-05-09T17:45:57.252Z,41.60
2018-05-09T17:48:27.285Z,41.50
2018-05-09T17:50:57.028Z,43.70
2018-05-09T17:53:26.171Z,44.00
2018-05-09T17:55:54.778Z,43.80
2018-05-09T17:58:23.178Z,46.50
2018-05-09T18:00:51.631Z,45.60
2018-05-09T18:03:19.992Z,43.10
2018-05-09T18:05:50.957Z,44.60
2018-05-09T18:08:23.848Z,44.60
2018-05-09T18:10:52.395Z,45.10
2018-05-09T18:13:20.764Z,44.60
2018-05-09T18:15:49.299Z,46.80
2018-05-09T18:18:17.720Z,47.80
2018-05-09T18:20:46.873Z,48.80
2018-05-09T18:23:15.443Z,48.80
2018-05-09T18:25:43.817Z,51.50
2018-05-09T18:28:12.216Z,52.80
2018-05-09T18:30:40.603Z,52.50
2018-05-09T18:33:08.994Z,52.80
2018-05-09T18:35:37.489Z,55.20
2018-05-09T18:38:06.701Z,56.50
2018-05-09T18:40:35.101Z,56.50
2018-05-09T18:43:03.485Z,56.50
2018-05-09T18:45:31.931Z,61.90
2018-05-09T18:48:01.121Z,66.00
2018-05-09T18:50:29.550Z,66.40
2018-05-09T18:52:57.923Z,70.40
2018-05-09T18:55:26.311Z,74.90
2018-05-09T18:57:55.523Z,82.40
2018-05-09T19:00:23.903Z,82.40
2018-05-09T19:02:52.268Z,83.80
2018-05-09T19:05:20.689Z,85.30
2018-05-09T19:07:49.053Z,90.80
2018-05-09T19:10:17.697Z,90.90
2018-05-09T19:12:46.103Z,91.20
2018-05-09T19:15:14.498Z,92.00
2018-05-09T19:17:42.908Z,93.20
2018-05-09T19:20:12.078Z,94.90
2018-05-09T19:22:40.589Z,94.90
2018-05-09T19:25:09.081Z,95.00
2018-05-09T19:27:38.385Z,96.60
2018-05-09T19:30:06.771Z,96.60
2018-05-09T19:32:35.227Z,96.50
2018-05-09T19:35:04.387Z,96.80
2018-05-09T19:37:32.799Z,96.90
2018-05-09T19:40:01.990Z,98.00
2018-05-09T19:42:31.261Z,99.60
2018-05-09T19:45:01.809Z,99.60
2018-05-09T19:47:30.293Z,99.90
2018-05-09T19:49:59.526Z,99.90
2018-05-09T19:52:27.922Z,99.90
2018-05-09T19:54:56.609Z,99.90
2018-05-09T19:57:26.127Z,99.90
2018-05-09T19:59:57.999Z,99.90
2018-05-09T20:02:26.561Z,99.90
2018-05-09T20:04:55.180Z,99.90
2018-05-09T20:07:23.605Z,99.90
2018-05-09T20:09:52.744Z,99.90
2018-05-09T20:12:21.257Z,99.90
2018-05-09T20:14:50.441Z,99.90
2018-05-09T20:17:19.014Z,99.90
2018-05-09T20:19:48.339Z,99.90
2018-05-09T20:22:16.888Z,99.90
2018-05-09T20:24:45.310Z,99.90
2018-05-09T20:27:13.755Z,99.90
2018-05-09T20:29:42.887Z,99.90
2018-05-09T20:32:23.059Z,99.90
2018-05-09T20:34:51.496Z,99.90
2018-05-09T20:37:20.035Z,99.90
2018-05-09T20:39:48.403Z,99.90
2018-05-09T20:42:16.868Z,99.90
2018-05-09T20:44:46.087Z,99.90
2018-05-09T20:47:15.250Z,99.90
2018-05-09T20:49:44.394Z,99.90
2018-05-09T20:52:13.366Z,99.90
2018-05-09T20:54:41.820Z,99.90
2018-05-09T20:57:10.206Z,99.90
2018-05-09T20:59:38.614Z,99.90
2018-05-09T21:02:07.100Z,99.90
2018-05-09T21:04:35.640Z,99.90
2018-05-09T21:07:04.211Z,99.90
2018-05-09T21:09:33.063Z,99.90
2018-05-09T21:12:09.351Z,99.90
2018-05-09T21:14:38.693Z,99.90
2018-05-09T21:17:07.083Z,99.90
2018-05-09T21:19:35.459Z,99.90
2018-05-09T21:22:03.811Z,99.90
2018-05-09T21:24:32.200Z,99.90
2018-05-09T21:27:00.746Z,99.90
2018-05-09T21:29:29.934Z,99.90
2018-05-09T21:31:58.327Z,99.90
2018-05-09T21:34:26.714Z,99.90
2018-05-09T21:36:55.359Z,99.90
2018-05-09T21:39:23.757Z,99.90
2018-05-09T21:41:52.143Z,99.90
2018-05-09T21:44:20.515Z,99.90
2018-05-09T21:46:48.956Z,99.90
2018-05-09T21:49:17.306Z,99.90
2018-05-09T21:51:45.665Z,99.90
2018-05-09T21:54:14.087Z,99.90
2018-05-09T21:56:42.508Z,99.90
2018-05-09T21:59:13.059Z,99.90
2018-05-09T22:01:41.599Z,99.90
2018-05-09T22:04:09.983Z,99.90
2018-05-09T22:06:38.533Z,99.90
2018-05-09T22:09:06.886Z,99.90
2018-05-09T22:11:35.480Z,99.90
2018-05-09T22:14:03.826Z,99.90
2018-05-09T22:16:32.247Z,99.90
2018-05-09T22:19:00.675Z,99.90
2018-05-09T22:21:29.068Z,99.90
2018-05-09T22:23:57.515Z,99.90
2018-05-09T22:26:26.820Z,99.90
2018-05-09T22:28:55.255Z,99.90
2018-05-09T22:31:23.631Z,99.90
2018-05-09T22:33:52.755Z,99.90
2018-05-09T22:36:21.128Z,99.90
2018-05-09T22:38:50.170Z,99.90
2018-05-09T22:41:19.576Z,99.90
2018-05-09T22:43:48.034Z,99.90
2018-05-09T22:46:16.422Z,99.90
2018-05-09T22:48:44.835Z,99.90
2018-05-09T22:51:13.201Z,99.90
2018-05-09T22:53:41.751Z,99.90
2018-05-09T22:56:10.912Z,99.90
2018-05-09T22:58:40.044Z,99.90
2018-05-09T23:01:09.440Z,99.90
2018-05-09T23:03:37.819Z,99.90
2018-05-09T23:06:06.967Z,99.90
2018-05-09T23:08:36.156Z,99.90
2018-05-09T23:11:04.538Z,99.90
2018-05-09T23:13:32.909Z,99.90
2018-05-09T23:16:01.439Z,99.90
2018-05-09T23:18:29.806Z,99.90
2018-05-09T23:20:59.042Z,99.90
2018-05-09T23:23:28.346Z,99.90
2018-05-09T23:25:57.671Z,99.90
2018-05-09T23:28:26.079Z,99.90
2018-05-09T23:30:54.469Z,99.90
2018-05-09T23:33:23.651Z,99.90
2018-05-09T23:35:52.196Z,99.90
2018-05-09T23:38:20.588Z,99.90
2018-05-09T23:40:49.142Z,99.90
2018-05-09T23:43:17.511Z,99.90
2018-05-09T23:45:47.576Z,99.90
2018-05-09T23:48:16.148Z,99.90
2018-05-09T23:50:45.363Z,99.90
2018-05-09T23:53:13.780Z,99.90
2018-05-09T23:55:42.357Z,99.90
2018-05-09T23:58:10.626Z,99.90
